sensor_id;sensor_type;location;lat;lon;timestamp;P1;durP1;ratioP1;P2;durP2;ratioP2
3771;SDS011;1901;48.172;12.824;2023-08-20T00:01:00;10.43;;;7.03;;
3771;SDS011;1901;48.172;12.824;2023-08-20T00:03:29;12.93;;;7.90;;
3771;SDS011;1901;48.172;12.824;2023-08-20T00:05:57;7.90;;;7.10;;
3771;SDS011;1901;48.172;12.824;2023-08-20T00:08:24;10.60;;;6.97;;
3771;SDS011;1901;48.172;12.824;2023-08-20T00:10:52;8.20;;;6.43;;
3771;SDS011;1901;48.172;12.824;2023-08-20T00:13:19;9.97;;;7.30;;
3771;SDS011;1901;48.172;12.824;2023-08-20T00:15:47;11.23;;;7.20;;
3771;SDS011;1901;48.172;12.824;2023-08-20T00:18:14;9.43;;;7.70;;
3771;SDS011;1901;48.172;12.824;2023-08-20T00:20:41;8.53;;;7.00;;
3771;SDS011;1901;48.172;12.824;2023-08-20T00:23:10;9.50;;;6.90;;
3771;SDS011;1901;48.172;12.824;2023-08-20T00:25:38;16.23;;;8.90;;
3771;SDS011;1901;48.172;12.824;2023-08-20T00:28:06;14.43;;;8.10;;
3771;SDS011;1901;48.172;12.824;2023-08-20T00:30:33;21.53;;;18.13;;
3771;SDS011;1901;48.172;12.824;2023-08-20T00:33:01;11.90;;;9.00;;
3771;SDS011;1901;48.172;12.824;2023-08-20T00:35:28;9.00;;;8.10;;
3771;SDS011;1901;48.172;12.824;2023-08-20T00:37:55;10.83;;;8.97;;
3771;SDS011;1901;48.172;12.824;2023-08-20T00:40:22;9.30;;;8.43;;
3771;SDS011;1901;48.172;12.824;2023-08-20T00:42:49;13.13;;;7.70;;
3771;SDS011;1901;48.172;12.824;2023-08-20T00:45:18;12.03;;;9.27;;
3771;SDS011;1901;48.172;12.824;2023-08-20T00:47:45;11.23;;;8.33;;
3771;SDS011;1901;48.172;12.824;2023-08-20T00:50:12;9.73;;;6.13;;
3771;SDS011;1901;48.172;12.824;2023-08-20T00:52:40;7.83;;;7.13;;
3771;SDS011;1901;48.172;12.824;2023-08-20T00:55:07;8.47;;;7.33;;
3771;SDS011;1901;48.172;12.824;2023-08-20T00:57:35;9.80;;;7.63;;
3771;SDS011;1901;48.172;12.824;2023-08-20T01:00:03;9.30;;;7.20;;
3771;SDS011;1901;48.172;12.824;2023-08-20T01:02:33;11.50;;;7.27;;
3771;SDS011;1901;48.172;12.824;2023-08-20T01:05:01;14.27;;;7.73;;
3771;SDS011;1901;48.172;12.824;2023-08-20T01:07:30;9.87;;;7.10;;
3771;SDS011;1901;48.172;12.824;2023-08-20T01:10:03;7.37;;;6.77;;
3771;SDS011;1901;48.172;12.824;2023-08-20T01:12:31;8.53;;;7.73;;
3771;SDS011;1901;48.172;12.824;2023-08-20T01:14:58;8.53;;;6.30;;
3771;SDS011;1901;48.172;12.824;2023-08-20T01:17:25;9.50;;;6.87;;
3771;SDS011;1901;48.172;12.824;2023-08-20T01:19:53;12.50;;;8.07;;
3771;SDS011;1901;48.172;12.824;2023-08-20T01:25:16;8.40;;;7.70;;
3771;SDS011;1901;48.172;12.824;2023-08-20T01:27:49;10.17;;;8.37;;
3771;SDS011;1901;48.172;12.824;2023-08-20T01:30:20;8.57;;;7.60;;
3771;SDS011;1901;48.172;12.824;2023-08-20T01:32:48;12.50;;;8.60;;
3771;SDS011;1901;48.172;12.824;2023-08-20T01:35:16;8.47;;;7.20;;
3771;SDS011;1901;48.172;12.824;2023-08-20T01:37:44;8.33;;;7.33;;
3771;SDS011;1901;48.172;12.824;2023-08-20T01:40:11;8.87;;;7.80;;
3771;SDS011;1901;48.172;12.824;2023-08-20T01:42:39;7.97;;;7.10;;
3771;SDS011;1901;48.172;12.824;2023-08-20T01:45:07;9.23;;;8.33;;
3771;SDS011;1901;48.172;12.824;2023-08-20T01:47:36;10.40;;;8.10;;
3771;SDS011;1901;48.172;12.824;2023-08-20T01:50:03;9.50;;;6.90;;
3771;SDS011;1901;48.172;12.824;2023-08-20T01:52:30;8.30;;;7.20;;
3771;SDS011;1901;48.172;12.824;2023-08-20T01:54:57;9.27;;;7.03;;
3771;SDS011;1901;48.172;12.824;2023-08-20T01:57:25;8.90;;;7.50;;
3771;SDS011;1901;48.172;12.824;2023-08-20T01:59:52;10.03;;;7.53;;
3771;SDS011;1901;48.172;12.824;2023-08-20T02:02:19;9.50;;;7.40;;
3771;SDS011;1901;48.172;12.824;2023-08-20T02:04:47;8.23;;;7.20;;
3771;SDS011;1901;48.172;12.824;2023-08-20T02:07:14;15.67;;;8.00;;
3771;SDS011;1901;48.172;12.824;2023-08-20T02:09:43;11.70;;;7.60;;
3771;SDS011;1901;48.172;12.824;2023-08-20T02:12:10;9.23;;;7.87;;
3771;SDS011;1901;48.172;12.824;2023-08-20T02:14:37;7.53;;;6.83;;
3771;SDS011;1901;48.172;12.824;2023-08-20T02:17:04;11.90;;;6.33;;
3771;SDS011;1901;48.172;12.824;2023-08-20T02:19:31;7.63;;;6.47;;
3771;SDS011;1901;48.172;12.824;2023-08-20T02:22:00;14.93;;;7.40;;
3771;SDS011;1901;48.172;12.824;2023-08-20T02:24:27;9.57;;;7.00;;
3771;SDS011;1901;48.172;12.824;2023-08-20T02:26:54;13.07;;;7.20;;
3771;SDS011;1901;48.172;12.824;2023-08-20T02:29:22;10.30;;;6.70;;
3771;SDS011;1901;48.172;12.824;2023-08-20T02:31:49;9.93;;;7.57;;
3771;SDS011;1901;48.172;12.824;2023-08-20T02:34:16;7.77;;;6.30;;
3771;SDS011;1901;48.172;12.824;2023-08-20T02:36:43;11.07;;;6.90;;
3771;SDS011;1901;48.172;12.824;2023-08-20T02:39:12;9.40;;;7.23;;
3771;SDS011;1901;48.172;12.824;2023-08-20T02:41:41;7.67;;;6.50;;
3771;SDS011;1901;48.172;12.824;2023-08-20T02:44:08;7.67;;;6.00;;
3771;SDS011;1901;48.172;12.824;2023-08-20T02:46:35;8.13;;;7.33;;
3771;SDS011;1901;48.172;12.824;2023-08-20T02:49:03;11.00;;;7.33;;
3771;SDS011;1901;48.172;12.824;2023-08-20T02:51:30;7.63;;;6.87;;
3771;SDS011;1901;48.172;12.824;2023-08-20T02:53:57;12.00;;;7.37;;
3771;SDS011;1901;48.172;12.824;2023-08-20T02:56:26;8.40;;;6.20;;
3771;SDS011;1901;48.172;12.824;2023-08-20T02:58:53;13.10;;;6.60;;
3771;SDS011;1901;48.172;12.824;2023-08-20T03:01:20;7.63;;;6.83;;
3771;SDS011;1901;48.172;12.824;2023-08-20T03:03:47;10.47;;;7.00;;
3771;SDS011;1901;48.172;12.824;2023-08-20T03:06:15;10.00;;;6.50;;
3771;SDS011;1901;48.172;12.824;2023-08-20T03:08:42;8.87;;;7.30;;
3771;SDS011;1901;48.172;12.824;2023-08-20T03:11:09;13.23;;;6.73;;
3771;SDS011;1901;48.172;12.824;2023-08-20T03:13:38;10.67;;;6.70;;
3771;SDS011;1901;48.172;12.824;2023-08-20T03:16:05;12.87;;;7.20;;
3771;SDS011;1901;48.172;12.824;2023-08-20T03:18:32;8.47;;;6.40;;
3771;SDS011;1901;48.172;12.824;2023-08-20T03:20:59;7.37;;;6.50;;
3771;SDS011;1901;48.172;12.824;2023-08-20T03:23:26;10.20;;;7.40;;
3771;SDS011;1901;48.172;12.824;2023-08-20T03:25:56;7.30;;;6.57;;
3771;SDS011;1901;48.172;12.824;2023-08-20T03:28:24;9.33;;;7.33;;
3771;SDS011;1901;48.172;12.824;2023-08-20T03:30:53;10.07;;;6.47;;
3771;SDS011;1901;48.172;12.824;2023-08-20T03:33:20;8.57;;;7.70;;
3771;SDS011;1901;48.172;12.824;2023-08-20T03:35:47;14.30;;;7.33;;
3771;SDS011;1901;48.172;12.824;2023-08-20T03:38:14;16.97;;;8.73;;
3771;SDS011;1901;48.172;12.824;2023-08-20T03:40:41;12.63;;;8.27;;
3771;SDS011;1901;48.172;12.824;2023-08-20T03:43:10;12.87;;;9.23;;
3771;SDS011;1901;48.172;12.824;2023-08-20T03:45:37;8.83;;;7.80;;
3771;SDS011;1901;48.172;12.824;2023-08-20T03:48:06;8.63;;;7.33;;
3771;SDS011;1901;48.172;12.824;2023-08-20T03:50:33;10.03;;;7.77;;
3771;SDS011;1901;48.172;12.824;2023-08-20T03:53:00;10.73;;;9.63;;
3771;SDS011;1901;48.172;12.824;2023-08-20T03:55:27;10.40;;;8.30;;
3771;SDS011;1901;48.172;12.824;2023-08-20T03:57:54;10.57;;;8.10;;
3771;SDS011;1901;48.172;12.824;2023-08-20T04:00:21;9.40;;;7.03;;
3771;SDS011;1901;48.172;12.824;2023-08-20T04:02:48;9.63;;;7.73;;
3771;SDS011;1901;48.172;12.824;2023-08-20T04:05:17;12.03;;;7.27;;
3771;SDS011;1901;48.172;12.824;2023-08-20T04:07:44;13.63;;;7.60;;
3771;SDS011;1901;48.172;12.824;2023-08-20T04:10:11;7.37;;;6.67;;
3771;SDS011;1901;48.172;12.824;2023-08-20T04:12:38;9.43;;;7.10;;
3771;SDS011;1901;48.172;12.824;2023-08-20T04:15:05;10.70;;;6.93;;
3771;SDS011;1901;48.172;12.824;2023-08-20T04:17:33;10.33;;;6.90;;
3771;SDS011;1901;48.172;12.824;2023-08-20T04:20:00;8.57;;;7.10;;
3771;SDS011;1901;48.172;12.824;2023-08-20T04:22:30;12.63;;;6.90;;
3771;SDS011;1901;48.172;12.824;2023-08-20T04:24:57;7.80;;;6.93;;
3771;SDS011;1901;48.172;12.824;2023-08-20T04:27:24;13.40;;;7.33;;
3771;SDS011;1901;48.172;12.824;2023-08-20T04:29:51;7.87;;;6.97;;
3771;SDS011;1901;48.172;12.824;2023-08-20T04:32:19;9.93;;;6.80;;
3771;SDS011;1901;48.172;12.824;2023-08-20T04:34:46;9.60;;;7.40;;
3771;SDS011;1901;48.172;12.824;2023-08-20T04:37:14;7.00;;;6.30;;
3771;SDS011;1901;48.172;12.824;2023-08-20T04:39:43;10.87;;;7.20;;
3771;SDS011;1901;48.172;12.824;2023-08-20T04:42:10;6.90;;;6.30;;
3771;SDS011;1901;48.172;12.824;2023-08-20T04:44:37;13.27;;;6.60;;
3771;SDS011;1901;48.172;12.824;2023-08-20T04:47:04;10.47;;;6.40;;
3771;SDS011;1901;48.172;12.824;2023-08-20T04:49:31;6.73;;;6.10;;
3771;SDS011;1901;48.172;12.824;2023-08-20T04:51:58;7.13;;;6.37;;
3771;SDS011;1901;48.172;12.824;2023-08-20T04:54:25;7.17;;;6.00;;
3771;SDS011;1901;48.172;12.824;2023-08-20T04:56:54;6.77;;;5.90;;
3771;SDS011;1901;48.172;12.824;2023-08-20T04:59:21;8.60;;;5.90;;
3771;SDS011;1901;48.172;12.824;2023-08-20T05:01:48;6.63;;;5.67;;
3771;SDS011;1901;48.172;12.824;2023-08-20T05:04:15;7.57;;;5.90;;
3771;SDS011;1901;48.172;12.824;2023-08-20T05:06:43;6.63;;;6.03;;
3771;SDS011;1901;48.172;12.824;2023-08-20T05:09:10;7.57;;;6.40;;
3771;SDS011;1901;48.172;12.824;2023-08-20T05:11:37;8.37;;;7.13;;
3771;SDS011;1901;48.172;12.824;2023-08-20T05:14:05;9.27;;;6.30;;
3771;SDS011;1901;48.172;12.824;2023-08-20T05:16:32;7.80;;;5.90;;
3771;SDS011;1901;48.172;12.824;2023-08-20T05:19:00;10.07;;;6.57;;
3771;SDS011;1901;48.172;12.824;2023-08-20T05:21:27;7.50;;;6.33;;
3771;SDS011;1901;48.172;12.824;2023-08-20T05:23:54;7.70;;;6.93;;
3771;SDS011;1901;48.172;12.824;2023-08-20T05:26:21;6.07;;;5.50;;
3771;SDS011;1901;48.172;12.824;2023-08-20T05:28:48;8.60;;;6.10;;
3771;SDS011;1901;48.172;12.824;2023-08-20T05:31:17;5.43;;;4.90;;
3771;SDS011;1901;48.172;12.824;2023-08-20T05:33:44;6.60;;;6.00;;
3771;SDS011;1901;48.172;12.824;2023-08-20T05:36:11;5.97;;;5.10;;
3771;SDS011;1901;48.172;12.824;2023-08-20T05:38:38;7.27;;;4.40;;
3771;SDS011;1901;48.172;12.824;2023-08-20T05:41:07;5.83;;;4.77;;
3771;SDS011;1901;48.172;12.824;2023-08-20T05:43:34;5.60;;;4.57;;
3771;SDS011;1901;48.172;12.824;2023-08-20T05:46:02;7.20;;;4.43;;
3771;SDS011;1901;48.172;12.824;2023-08-20T05:48:30;7.43;;;5.00;;
3771;SDS011;1901;48.172;12.824;2023-08-20T05:50:57;5.07;;;3.97;;
3771;SDS011;1901;48.172;12.824;2023-08-20T05:53:25;9.23;;;4.60;;
3771;SDS011;1901;48.172;12.824;2023-08-20T05:55:52;5.03;;;4.20;;
3771;SDS011;1901;48.172;12.824;2023-08-20T05:58:19;6.00;;;5.23;;
3771;SDS011;1901;48.172;12.824;2023-08-20T06:00:46;11.30;;;4.53;;
3771;SDS011;1901;48.172;12.824;2023-08-20T06:03:13;7.20;;;4.30;;
3771;SDS011;1901;48.172;12.824;2023-08-20T06:05:42;7.90;;;3.87;;
3771;SDS011;1901;48.172;12.824;2023-08-20T06:08:09;7.63;;;4.33;;
3771;SDS011;1901;48.172;12.824;2023-08-20T06:10:36;6.13;;;4.20;;
3771;SDS011;1901;48.172;12.824;2023-08-20T06:13:03;5.83;;;4.90;;
3771;SDS011;1901;48.172;12.824;2023-08-20T06:15:30;5.03;;;4.60;;
3771;SDS011;1901;48.172;12.824;2023-08-20T06:17:57;7.63;;;4.13;;
3771;SDS011;1901;48.172;12.824;2023-08-20T06:20:24;5.53;;;4.07;;
3771;SDS011;1901;48.172;12.824;2023-08-20T06:22:53;5.95;;;4.60;;
3771;SDS011;1901;48.172;12.824;2023-08-20T06:25:20;6.15;;;4.13;;
3771;SDS011;1901;48.172;12.824;2023-08-20T06:27:47;5.07;;;4.35;;
3771;SDS011;1901;48.172;12.824;2023-08-20T06:30:14;8.07;;;4.63;;
3771;SDS011;1901;48.172;12.824;2023-08-20T06:32:41;6.47;;;4.70;;
3771;SDS011;1901;48.172;12.824;2023-08-20T06:35:08;4.47;;;4.05;;
3771;SDS011;1901;48.172;12.824;2023-08-20T06:37:36;4.80;;;4.30;;
3771;SDS011;1901;48.172;12.824;2023-08-20T06:40:05;6.25;;;4.30;;
3771;SDS011;1901;48.172;12.824;2023-08-20T06:42:32;5.63;;;3.70;;
3771;SDS011;1901;48.172;12.824;2023-08-20T06:44:59;4.82;;;4.43;;
3771;SDS011;1901;48.172;12.824;2023-08-20T06:47:27;9.35;;;4.03;;
3771;SDS011;1901;48.172;12.824;2023-08-20T06:49:54;9.70;;;4.63;;
3771;SDS011;1901;48.172;12.824;2023-08-20T06:52:21;5.68;;;4.03;;
3771;SDS011;1901;48.172;12.824;2023-08-20T06:54:48;5.80;;;3.88;;
3771;SDS011;1901;48.172;12.824;2023-08-20T06:57:16;4.72;;;3.83;;
3771;SDS011;1901;48.172;12.824;2023-08-20T06:59:43;5.05;;;3.42;;
3771;SDS011;1901;48.172;12.824;2023-08-20T07:02:10;4.57;;;3.88;;
3771;SDS011;1901;48.172;12.824;2023-08-20T07:04:38;7.95;;;4.18;;
3771;SDS011;1901;48.172;12.824;2023-08-20T07:07:05;4.10;;;3.80;;
3771;SDS011;1901;48.172;12.824;2023-08-20T07:09:33;6.10;;;3.90;;
3771;SDS011;1901;48.172;12.824;2023-08-20T07:12:00;6.93;;;4.35;;
3771;SDS011;1901;48.172;12.824;2023-08-20T07:14:29;7.97;;;3.80;;
3771;SDS011;1901;48.172;12.824;2023-08-20T07:16:56;5.10;;;3.88;;
3771;SDS011;1901;48.172;12.824;2023-08-20T07:19:25;4.10;;;3.80;;
3771;SDS011;1901;48.172;12.824;2023-08-20T07:21:53;6.15;;;4.72;;
3771;SDS011;1901;48.172;12.824;2023-08-20T07:24:20;5.63;;;3.85;;
3771;SDS011;1901;48.172;12.824;2023-08-20T07:26:50;5.22;;;4.78;;
3771;SDS011;1901;48.172;12.824;2023-08-20T07:29:17;6.25;;;3.88;;
3771;SDS011;1901;48.172;12.824;2023-08-20T07:31:45;4.43;;;3.38;;
3771;SDS011;1901;48.172;12.824;2023-08-20T07:34:13;6.57;;;3.85;;
3771;SDS011;1901;48.172;12.824;2023-08-20T07:36:40;5.13;;;3.53;;
3771;SDS011;1901;48.172;12.824;2023-08-20T07:39:07;8.60;;;4.25;;
3771;SDS011;1901;48.172;12.824;2023-08-20T07:41:34;5.00;;;4.32;;
3771;SDS011;1901;48.172;12.824;2023-08-20T07:44:02;5.57;;;3.97;;
3771;SDS011;1901;48.172;12.824;2023-08-20T07:46:29;7.15;;;3.90;;
3771;SDS011;1901;48.172;12.824;2023-08-20T07:48:57;5.32;;;3.95;;
3771;SDS011;1901;48.172;12.824;2023-08-20T07:51:24;6.85;;;3.75;;
3771;SDS011;1901;48.172;12.824;2023-08-20T07:53:51;4.00;;;3.65;;
3771;SDS011;1901;48.172;12.824;2023-08-20T07:56:19;5.90;;;4.20;;
3771;SDS011;1901;48.172;12.824;2023-08-20T07:58:46;6.37;;;3.80;;
3771;SDS011;1901;48.172;12.824;2023-08-20T08:01:13;7.20;;;3.60;;
3771;SDS011;1901;48.172;12.824;2023-08-20T08:03:41;6.70;;;3.97;;
3771;SDS011;1901;48.172;12.824;2023-08-20T08:06:10;9.00;;;4.13;;
3771;SDS011;1901;48.172;12.824;2023-08-20T08:08:37;4.40;;;4.00;;
3771;SDS011;1901;48.172;12.824;2023-08-20T08:11:05;6.33;;;5.20;;
3771;SDS011;1901;48.172;12.824;2023-08-20T08:13:32;4.73;;;4.13;;
3771;SDS011;1901;48.172;12.824;2023-08-20T08:15:59;6.00;;;4.87;;
3771;SDS011;1901;48.172;12.824;2023-08-20T08:18:26;5.70;;;5.20;;
3771;SDS011;1901;48.172;12.824;2023-08-20T08:20:53;5.00;;;4.70;;
3771;SDS011;1901;48.172;12.824;2023-08-20T08:23:22;6.03;;;5.43;;
3771;SDS011;1901;48.172;12.824;2023-08-20T08:25:49;8.47;;;5.17;;
3771;SDS011;1901;48.172;12.824;2023-08-20T08:28:16;5.87;;;5.37;;
3771;SDS011;1901;48.172;12.824;2023-08-20T08:30:43;4.70;;;4.20;;
3771;SDS011;1901;48.172;12.824;2023-08-20T08:33:10;5.83;;;4.87;;
3771;SDS011;1901;48.172;12.824;2023-08-20T08:35:38;8.73;;;5.53;;
3771;SDS011;1901;48.172;12.824;2023-08-20T08:38:06;5.03;;;4.53;;
3771;SDS011;1901;48.172;12.824;2023-08-20T08:40:35;10.63;;;7.27;;
3771;SDS011;1901;48.172;12.824;2023-08-20T08:43:02;10.97;;;7.80;;
3771;SDS011;1901;48.172;12.824;2023-08-20T08:45:29;5.00;;;4.50;;
3771;SDS011;1901;48.172;12.824;2023-08-20T08:47:56;6.80;;;5.20;;
3771;SDS011;1901;48.172;12.824;2023-08-20T08:50:23;8.50;;;5.37;;
3771;SDS011;1901;48.172;12.824;2023-08-20T08:52:51;10.23;;;6.40;;
3771;SDS011;1901;48.172;12.824;2023-08-20T08:55:19;8.40;;;7.23;;
3771;SDS011;1901;48.172;12.824;2023-08-20T08:57:47;9.83;;;5.57;;
3771;SDS011;1901;48.172;12.824;2023-08-20T09:00:15;6.73;;;5.10;;
3771;SDS011;1901;48.172;12.824;2023-08-20T09:02:42;5.37;;;4.97;;
3771;SDS011;1901;48.172;12.824;2023-08-20T09:05:09;5.27;;;4.77;;
3771;SDS011;1901;48.172;12.824;2023-08-20T09:07:38;6.47;;;5.63;;
3771;SDS011;1901;48.172;12.824;2023-08-20T09:10:08;8.80;;;5.70;;
3771;SDS011;1901;48.172;12.824;2023-08-20T09:12:36;11.03;;;5.80;;
3771;SDS011;1901;48.172;12.824;2023-08-20T09:15:09;5.17;;;4.73;;
3771;SDS011;1901;48.172;12.824;2023-08-20T09:17:36;5.80;;;5.30;;
3771;SDS011;1901;48.172;12.824;2023-08-20T09:20:03;6.47;;;4.27;;
3771;SDS011;1901;48.172;12.824;2023-08-20T09:22:31;6.17;;;5.20;;
3771;SDS011;1901;48.172;12.824;2023-08-20T09:24:58;4.90;;;4.50;;
3771;SDS011;1901;48.172;12.824;2023-08-20T09:27:25;7.77;;;5.07;;
3771;SDS011;1901;48.172;12.824;2023-08-20T09:29:53;5.07;;;4.67;;
3771;SDS011;1901;48.172;12.824;2023-08-20T09:32:22;5.90;;;5.30;;
3771;SDS011;1901;48.172;12.824;2023-08-20T09:34:50;7.93;;;5.80;;
3771;SDS011;1901;48.172;12.824;2023-08-20T09:37:19;6.20;;;5.60;;
3771;SDS011;1901;48.172;12.824;2023-08-20T09:39:46;4.90;;;4.53;;
3771;SDS011;1901;48.172;12.824;2023-08-20T09:42:14;5.77;;;5.27;;
3771;SDS011;1901;48.172;12.824;2023-08-20T09:44:41;5.97;;;5.47;;
3771;SDS011;1901;48.172;12.824;2023-08-20T09:47:09;6.83;;;6.13;;
3771;SDS011;1901;48.172;12.824;2023-08-20T09:49:38;6.43;;;5.80;;
3771;SDS011;1901;48.172;12.824;2023-08-20T09:52:06;7.20;;;6.50;;
3771;SDS011;1901;48.172;12.824;2023-08-20T09:54:41;5.93;;;5.43;;
3771;SDS011;1901;48.172;12.824;2023-08-20T09:57:12;6.60;;;6.00;;
3771;SDS011;1901;48.172;12.824;2023-08-20T09:59:41;6.43;;;5.90;;
3771;SDS011;1901;48.172;12.824;2023-08-20T10:02:09;7.23;;;6.10;;
3771;SDS011;1901;48.172;12.824;2023-08-20T10:04:40;5.20;;;4.70;;
3771;SDS011;1901;48.172;12.824;2023-08-20T10:07:07;8.07;;;7.27;;
3771;SDS011;1901;48.172;12.824;2023-08-20T10:09:34;8.53;;;7.73;;
3771;SDS011;1901;48.172;12.824;2023-08-20T10:12:03;6.83;;;6.23;;
3771;SDS011;1901;48.172;12.824;2023-08-20T10:14:30;6.87;;;6.37;;
3771;SDS011;1901;48.172;12.824;2023-08-20T10:16:57;6.87;;;6.37;;
3771;SDS011;1901;48.172;12.824;2023-08-20T10:19:25;7.53;;;6.93;;
3771;SDS011;1901;48.172;12.824;2023-08-20T10:21:53;7.90;;;7.10;;
3771;SDS011;1901;48.172;12.824;2023-08-20T10:24:20;6.83;;;6.10;;
3771;SDS011;1901;48.172;12.824;2023-08-20T10:26:55;6.83;;;6.20;;
3771;SDS011;1901;48.172;12.824;2023-08-20T10:29:40;6.53;;;5.93;;
3771;SDS011;1901;48.172;12.824;2023-08-20T10:32:08;7.20;;;6.60;;
3771;SDS011;1901;48.172;12.824;2023-08-20T10:34:36;11.63;;;7.00;;
3771;SDS011;1901;48.172;12.824;2023-08-20T10:37:10;7.27;;;6.57;;
3771;SDS011;1901;48.172;12.824;2023-08-20T10:39:37;7.00;;;6.50;;
3771;SDS011;1901;48.172;12.824;2023-08-20T10:44:57;9.23;;;6.50;;
3771;SDS011;1901;48.172;12.824;2023-08-20T10:47:24;7.03;;;6.43;;
3771;SDS011;1901;48.172;12.824;2023-08-20T10:49:52;7.63;;;6.80;;
3771;SDS011;1901;48.172;12.824;2023-08-20T10:52:20;6.20;;;5.70;;
3771;SDS011;1901;48.172;12.824;2023-08-20T10:54:49;7.53;;;5.90;;
3771;SDS011;1901;48.172;12.824;2023-08-20T10:57:17;8.23;;;7.43;;
3771;SDS011;1901;48.172;12.824;2023-08-20T10:59:55;6.10;;;5.60;;
3771;SDS011;1901;48.172;12.824;2023-08-20T11:02:23;6.17;;;5.67;;
3771;SDS011;1901;48.172;12.824;2023-08-20T11:04:50;8.23;;;5.60;;
3771;SDS011;1901;48.172;12.824;2023-08-20T11:07:18;6.10;;;5.70;;
3771;SDS011;1901;48.172;12.824;2023-08-20T11:09:46;6.67;;;6.10;;
3771;SDS011;1901;48.172;12.824;2023-08-20T11:12:15;6.10;;;5.70;;
3771;SDS011;1901;48.172;12.824;2023-08-20T11:14:42;6.37;;;5.87;;
3771;SDS011;1901;48.172;12.824;2023-08-20T11:17:09;5.20;;;4.90;;
3771;SDS011;1901;48.172;12.824;2023-08-20T11:19:36;5.73;;;5.33;;
3771;SDS011;1901;48.172;12.824;2023-08-20T11:22:03;5.50;;;5.10;;
3771;SDS011;1901;48.172;12.824;2023-08-20T11:24:31;6.17;;;5.77;;
3771;SDS011;1901;48.172;12.824;2023-08-20T11:26:59;5.87;;;5.47;;
3771;SDS011;1901;48.172;12.824;2023-08-20T11:29:26;7.47;;;6.90;;
3771;SDS011;1901;48.172;12.824;2023-08-20T11:31:56;6.47;;;5.63;;
3771;SDS011;1901;48.172;12.824;2023-08-20T11:34:23;5.80;;;5.30;;
3771;SDS011;1901;48.172;12.824;2023-08-20T11:36:51;7.00;;;5.60;;
3771;SDS011;1901;48.172;12.824;2023-08-20T11:39:18;5.53;;;5.10;;
3771;SDS011;1901;48.172;12.824;2023-08-20T11:41:46;6.00;;;5.60;;
3771;SDS011;1901;48.172;12.824;2023-08-20T11:44:20;5.10;;;4.80;;
3771;SDS011;1901;48.172;12.824;2023-08-20T11:46:47;5.97;;;5.47;;
3771;SDS011;1901;48.172;12.824;2023-08-20T11:49:15;5.10;;;4.70;;
3771;SDS011;1901;48.172;12.824;2023-08-20T11:51:42;4.70;;;4.40;;
3771;SDS011;1901;48.172;12.824;2023-08-20T11:54:11;5.23;;;4.83;;
3771;SDS011;1901;48.172;12.824;2023-08-20T11:56:43;5.63;;;5.20;;
3771;SDS011;1901;48.172;12.824;2023-08-20T11:59:11;6.03;;;4.73;;
3771;SDS011;1901;48.172;12.824;2023-08-20T12:01:40;4.70;;;4.40;;
3771;SDS011;1901;48.172;12.824;2023-08-20T12:04:08;4.60;;;4.30;;
3771;SDS011;1901;48.172;12.824;2023-08-20T12:06:35;5.83;;;5.33;;
3771;SDS011;1901;48.172;12.824;2023-08-20T12:09:18;6.13;;;5.63;;
3771;SDS011;1901;48.172;12.824;2023-08-20T12:11:48;7.17;;;6.53;;
3771;SDS011;1901;48.172;12.824;2023-08-20T12:14:15;7.00;;;6.50;;
3771;SDS011;1901;48.172;12.824;2023-08-20T12:16:44;5.60;;;5.10;;
3771;SDS011;1901;48.172;12.824;2023-08-20T12:19:11;6.53;;;5.27;;
3771;SDS011;1901;48.172;12.824;2023-08-20T12:21:39;4.83;;;4.43;;
3771;SDS011;1901;48.172;12.824;2023-08-20T12:24:07;6.33;;;4.47;;
3771;SDS011;1901;48.172;12.824;2023-08-20T12:26:34;5.53;;;5.13;;
3771;SDS011;1901;48.172;12.824;2023-08-20T12:29:01;7.30;;;6.23;;
3771;SDS011;1901;48.172;12.824;2023-08-20T12:31:28;6.23;;;5.33;;
3771;SDS011;1901;48.172;12.824;2023-08-20T12:33:57;5.70;;;5.30;;
3771;SDS011;1901;48.172;12.824;2023-08-20T12:36:24;10.20;;;6.80;;
3771;SDS011;1901;48.172;12.824;2023-08-20T12:38:51;5.30;;;4.90;;
3771;SDS011;1901;48.172;12.824;2023-08-20T12:41:18;5.53;;;5.03;;
3771;SDS011;1901;48.172;12.824;2023-08-20T12:43:45;9.47;;;5.43;;
3771;SDS011;1901;48.172;12.824;2023-08-20T12:46:13;5.83;;;5.30;;
3771;SDS011;1901;48.172;12.824;2023-08-20T12:48:40;5.53;;;4.90;;
3771;SDS011;1901;48.172;12.824;2023-08-20T12:51:08;6.13;;;5.60;;
3771;SDS011;1901;48.172;12.824;2023-08-20T12:53:38;5.30;;;4.80;;
3771;SDS011;1901;48.172;12.824;2023-08-20T12:56:05;4.27;;;3.97;;
3771;SDS011;1901;48.172;12.824;2023-08-20T12:58:32;6.50;;;4.80;;
3771;SDS011;1901;48.172;12.824;2023-08-20T13:01:00;4.80;;;4.10;;
3771;SDS011;1901;48.172;12.824;2023-08-20T13:03:27;4.17;;;3.77;;
3771;SDS011;1901;48.172;12.824;2023-08-20T13:05:55;5.10;;;4.70;;
3771;SDS011;1901;48.172;12.824;2023-08-20T13:08:25;4.40;;;4.07;;
3771;SDS011;1901;48.172;12.824;2023-08-20T13:10:53;4.90;;;4.50;;
3771;SDS011;1901;48.172;12.824;2023-08-20T13:13:21;5.47;;;4.73;;
3771;SDS011;1901;48.172;12.824;2023-08-20T13:15:49;4.93;;;4.53;;
3771;SDS011;1901;48.172;12.824;2023-08-20T13:18:17;5.10;;;4.60;;
3771;SDS011;1901;48.172;12.824;2023-08-20T13:20:44;6.93;;;4.57;;
3771;SDS011;1901;48.172;12.824;2023-08-20T13:23:12;4.90;;;4.50;;
3771;SDS011;1901;48.172;12.824;2023-08-20T13:25:41;5.40;;;4.97;;
3771;SDS011;1901;48.172;12.824;2023-08-20T13:28:08;5.10;;;4.80;;
3771;SDS011;1901;48.172;12.824;2023-08-20T13:30:35;5.07;;;4.57;;
3771;SDS011;1901;48.172;12.824;2023-08-20T13:33:03;5.63;;;5.03;;
3771;SDS011;1901;48.172;12.824;2023-08-20T13:35:30;5.70;;;5.30;;
3771;SDS011;1901;48.172;12.824;2023-08-20T13:37:57;6.30;;;5.80;;
3771;SDS011;1901;48.172;12.824;2023-08-20T13:40:24;5.73;;;4.37;;
3771;SDS011;1901;48.172;12.824;2023-08-20T13:42:53;5.20;;;4.80;;
3771;SDS011;1901;48.172;12.824;2023-08-20T13:45:20;5.20;;;4.70;;
3771;SDS011;1901;48.172;12.824;2023-08-20T13:47:47;5.70;;;5.20;;
3771;SDS011;1901;48.172;12.824;2023-08-20T13:50:14;6.10;;;5.17;;
3771;SDS011;1901;48.172;12.824;2023-08-20T13:52:41;4.97;;;4.67;;
3771;SDS011;1901;48.172;12.824;2023-08-20T13:55:08;6.27;;;5.20;;
3771;SDS011;1901;48.172;12.824;2023-08-20T13:57:35;5.57;;;5.07;;
3771;SDS011;1901;48.172;12.824;2023-08-20T14:00:05;8.50;;;4.90;;
3771;SDS011;1901;48.172;12.824;2023-08-20T14:02:34;5.30;;;4.90;;
3771;SDS011;1901;48.172;12.824;2023-08-20T14:05:02;5.67;;;5.17;;
3771;SDS011;1901;48.172;12.824;2023-08-20T14:07:30;6.83;;;5.73;;
3771;SDS011;1901;48.172;12.824;2023-08-20T14:09:57;8.57;;;5.30;;
3771;SDS011;1901;48.172;12.824;2023-08-20T14:12:25;5.53;;;5.13;;
3771;SDS011;1901;48.172;12.824;2023-08-20T14:15:00;5.90;;;5.40;;
3771;SDS011;1901;48.172;12.824;2023-08-20T14:17:29;5.27;;;4.73;;
3771;SDS011;1901;48.172;12.824;2023-08-20T14:19:56;5.70;;;5.20;;
3771;SDS011;1901;48.172;12.824;2023-08-20T14:22:23;8.87;;;5.47;;
3771;SDS011;1901;48.172;12.824;2023-08-20T14:24:50;5.70;;;5.30;;
3771;SDS011;1901;48.172;12.824;2023-08-20T14:27:17;8.97;;;5.20;;
3771;SDS011;1901;48.172;12.824;2023-08-20T14:29:45;5.20;;;4.63;;
3771;SDS011;1901;48.172;12.824;2023-08-20T14:32:12;6.17;;;5.57;;
3771;SDS011;1901;48.172;12.824;2023-08-20T14:34:41;5.23;;;4.73;;
3771;SDS011;1901;48.172;12.824;2023-08-20T14:37:08;5.37;;;4.97;;
3771;SDS011;1901;48.172;12.824;2023-08-20T14:39:38;5.23;;;4.73;;
3771;SDS011;1901;48.172;12.824;2023-08-20T14:42:05;5.83;;;5.33;;
3771;SDS011;1901;48.172;12.824;2023-08-20T14:44:32;8.40;;;5.07;;
3771;SDS011;1901;48.172;12.824;2023-08-20T14:46:59;9.03;;;5.90;;
3771;SDS011;1901;48.172;12.824;2023-08-20T14:49:26;6.20;;;5.70;;
3771;SDS011;1901;48.172;12.824;2023-08-20T14:51:55;6.40;;;5.90;;
3771;SDS011;1901;48.172;12.824;2023-08-20T14:54:22;6.63;;;6.13;;
3771;SDS011;1901;48.172;12.824;2023-08-20T14:56:49;5.77;;;5.37;;
3771;SDS011;1901;48.172;12.824;2023-08-20T14:59:16;6.60;;;6.10;;
3771;SDS011;1901;48.172;12.824;2023-08-20T15:01:43;5.87;;;5.47;;
3771;SDS011;1901;48.172;12.824;2023-08-20T15:04:11;5.93;;;5.40;;
3771;SDS011;1901;48.172;12.824;2023-08-20T15:06:38;8.30;;;5.83;;
3771;SDS011;1901;48.172;12.824;2023-08-20T15:09:06;6.73;;;6.00;;